Time;durP1;ratioP1;P1;durP2;ratioP2;P2;SDS_P1;SDS_P2;PMS_P1;PMS_P2;Temp;Humidity;BMP_temperature;BMP_pressure;BME280_temperature;BME280_humidity;BME280_pressure;Samples;Min_cycle;Max_cycle;Signal;HPM_P1;HPM_P2
2020/12/15 00:02:39;;;;;;;1.70;0.60;;;-1.40;99.90;;;;;;20742252;28;20116;-62
2020/12/15 00:12:41;;;;;;;0.82;0.40;;;-1.30;99.90;;;;;;20741658;28;20062;-62
2020/12/15 00:22:43;;;;;;;1.48;0.70;;;-1.10;99.90;;;;;;20743201;28;20034;-62
2020/12/15 00:32:48;;;;;;;1.05;0.70;;;-1.10;99.90;;;;;;20744834;28;20100;-62
2020/12/15 00:42:50;;;;;;;1.48;0.75;;;-0.90;99.90;;;;;;20756864;28;20440;-62
2020/12/15 00:52:52;;;;;;;1.08;0.57;;;-0.90;99.90;;;;;;20756644;28;20370;-62
2020/12/15 01:02:54;;;;;;;0.60;0.22;;;-0.80;99.90;;;;;;20756285;28;20092;-62
2020/12/15 01:12:56;;;;;;;0.47;0.30;;;-0.60;99.90;;;;;;20737946;28;20407;-62
2020/12/15 01:22:59;;;;;;;0.88;0.30;;;-0.60;99.90;;;;;;20755397;28;20084;-62
2020/12/15 01:33:09;;;;;;;0.27;0.13;;;-0.40;99.90;;;;;;20737183;28;20042;-62
2020/12/15 01:44:13;;;;;;;0.15;0.10;;;0.00;99.90;;;;;;20666996;28;20643;-64
2020/12/15 01:54:19;;;;;;;0.30;0.20;;;0.30;99.90;;;;;;20669792;28;20109;-64
2020/12/15 02:04:25;;;;;;;0.30;0.20;;;0.50;99.90;;;;;;20686106;28;20112;-62
2020/12/15 02:14:36;;;;;;;0.28;0.10;;;0.70;99.90;;;;;;20685569;28;20397;-61
2020/12/15 02:24:39;;;;;;;0.47;0.20;;;0.80;99.90;;;;;;20684996;28;20530;-68
2020/12/15 02:34:47;;;;;;;0.20;0.10;;;0.80;99.90;;;;;;20643753;28;20101;-63
2020/12/15 02:44:51;;;;;;;0.20;0.10;;;1.00;99.90;;;;;;20597929;28;20050;-63
2020/12/15 02:54:58;;;;;;;0.20;0.10;;;1.10;99.90;;;;;;20726242;28;20495;-60
2020/12/15 03:05:06;;;;;;;0.63;0.10;;;1.30;99.90;;;;;;20727645;28;20112;-63
2020/12/15 03:15:09;;;;;;;0.20;0.10;;;1.30;99.90;;;;;;20728936;28;20563;-63
2020/12/15 03:25:11;;;;;;;0.10;0.10;;;1.30;99.90;;;;;;20728701;28;20030;-63
2020/12/15 03:35:22;;;;;;;0.73;0.30;;;1.70;99.90;;;;;;20744271;28;20034;-68
2020/12/15 03:45:24;;;;;;;0.20;0.10;;;1.90;99.90;;;;;;20743771;28;20100;-65
2020/12/15 03:55:27;;;;;;;0.30;0.10;;;2.00;99.90;;;;;;20726245;28;20046;-64
2020/12/15 04:05:38;;;;;;;0.30;0.10;;;2.10;99.90;;;;;;20742177;28;20042;-63
2020/12/15 04:15:40;;;;;;;1.08;0.20;;;2.20;99.90;;;;;;20725391;28;20072;-60
2020/12/15 04:25:59;;;;;;;0.35;0.15;;;3.00;99.90;;;;;;20742011;28;20042;-62
2020/12/15 04:36:08;;;;;;;;;;;3.10;99.90;;;;;;20741819;28;20042;-62
2020/12/15 04:46:19;;;;;;;1.42;0.10;;;2.80;99.90;;;;;;20740968;28;19909;-62
2020/12/15 04:56:28;;;;;;;0.10;0.10;;;2.50;99.90;;;;;;20724526;28;20038;-61
2020/12/15 05:06:38;;;;;;;0.20;0.10;;;2.30;99.90;;;;;;20722528;28;20053;-62
2020/12/15 05:16:40;;;;;;;0.00;0.00;;;2.20;99.90;;;;;;20721276;28;20100;-63
2020/12/15 05:27:01;;;;;;;0.00;0.00;;;2.30;99.90;;;;;;20753183;28;20049;-61
2020/12/15 05:37:11;;;;;;;0.00;0.00;;;2.30;99.90;;;;;;20720895;28;20554;-64
2020/12/15 05:47:40;;;;;;;0.05;0.00;;;2.50;99.90;;;;;;20750856;28;20108;-63
2020/12/15 05:57:46;;;;;;;0.00;0.00;;;2.10;99.90;;;;;;20735966;28;20444;-63
2020/12/15 06:07:48;;;;;;;0.10;0.00;;;2.00;99.90;;;;;;20751622;28;20042;-62
2020/12/15 06:18:01;;;;;;;0.10;0.03;;;2.10;99.90;;;;;;20733922;28;20038;-59
2020/12/15 06:28:11;;;;;;;0.10;0.00;;;2.10;99.90;;;;;;20749948;28;20046;-63
2020/12/15 06:38:19;;;;;;;0.00;0.00;;;2.10;99.90;;;;;;20748983;28;20088;-61
2020/12/15 06:48:23;;;;;;;0.05;0.00;;;2.10;99.90;;;;;;20748869;28;20079;-63
2020/12/15 06:58:25;;;;;;;0.10;0.08;;;2.00;99.90;;;;;;20748746;28;20030;-66
2020/12/15 07:08:27;;;;;;;0.17;0.03;;;2.20;99.90;;;;;;20747636;28;20104;-66
2020/12/15 07:18:32;;;;;;;0.25;0.00;;;2.30;99.90;;;;;;20729204;28;20084;-66
2020/12/15 07:28:36;;;;;;;0.00;0.00;;;2.40;99.90;;;;;;20743949;28;20385;-63
2020/12/15 07:38:38;;;;;;;0.00;0.00;;;2.70;99.90;;;;;;20742146;28;20116;-62
2020/12/15 07:48:41;;;;;;;0.00;0.00;;;2.80;99.90;;;;;;20743915;28;20054;-61
2020/12/15 07:58:48;;;;;;;0.00;0.00;;;2.90;99.90;;;;;;20726771;28;20554;-61
2020/12/15 08:08:58;;;;;;;0.08;0.00;;;3.00;99.90;;;;;;20740853;28;20054;-64
2020/12/15 08:19:01;;;;;;;0.08;0.00;;;3.20;99.90;;;;;;20741331;28;20546;-64
2020/12/15 08:29:10;;;;;;;0.15;0.03;;;3.40;99.90;;;;;;20742608;28;20080;-64
2020/12/15 08:39:14;;;;;;;4.85;0.08;;;4.00;99.90;;;;;;20742065;28;20124;-64
2020/12/15 08:49:17;;;;;;;1.67;0.00;;;4.20;99.90;;;;;;20740646;28;20451;-63
2020/12/15 08:59:25;;;;;;;0.00;0.00;;;4.20;99.90;;;;;;20733982;28;20038;-64
2020/12/15 09:09:32;;;;;;;0.00;0.00;;;4.20;99.90;;;;;;20739941;28;20038;-63
2020/12/15 09:19:40;;;;;;;0.10;0.00;;;4.90;99.90;;;;;;20754653;28;20404;-63
2020/12/15 09:29:42;;;;;;;0.00;0.00;;;5.90;99.90;;;;;;20753910;28;20062;-64
2020/12/15 09:39:44;;;;;;;0.20;0.10;;;6.00;99.90;;;;;;20754131;28;20033;-62
2020/12/15 09:49:46;;;;;;;0.50;0.17;;;6.50;97.90;;;;;;20753090;28;20096;-62
2020/12/15 09:59:48;;;;;;;0.38;0.00;;;7.60;87.50;;;;;;20752943;28;20060;-67
2020/12/15 10:09:54;;;;;;;0.80;0.17;;;7.90;88.10;;;;;;20750822;28;20100;-63
2020/12/15 10:19:56;;;;;;;1.85;0.20;;;8.90;80.30;;;;;;20747403;28;20038;-61
2020/12/15 10:29:58;;;;;;;0.60;0.30;;;8.90;74.60;;;;;;20732843;28;20038;-62
2020/12/15 10:40:01;;;;;;;0.25;0.10;;;8.90;76.50;;;;;;20731076;28;20042;-68
2020/12/15 10:50:04;;;;;;;0.38;0.13;;;7.90;83.20;;;;;;20746896;28;20435;-61
2020/12/15 11:00:08;;;;;;;0.90;0.10;;;7.10;90.10;;;;;;20745015;28;20050;-63
2020/12/15 11:10:10;;;;;;;0.40;0.10;;;6.80;90.20;;;;;;20747651;28;20041;-63
2020/12/15 11:20:13;;;;;;;0.00;0.00;;;6.80;91.70;;;;;;20742950;28;20030;-66
2020/12/15 11:30:15;;;;;;;0.05;0.00;;;6.50;91.10;;;;;;20728367;28;20109;-67
2020/12/15 11:40:18;;;;;;;0.63;0.30;;;6.50;93.40;;;;;;20726960;28;20038;-67
2020/12/15 11:50:20;;;;;;;2.78;0.47;;;6.90;92.60;;;;;;20744228;28;20057;-67
2020/12/15 12:00:22;;;;;;;1.30;0.50;;;7.20;92.80;;;;;;20743193;28;20053;-67
2020/12/15 12:10:24;;;;;;;0.70;0.30;;;6.80;93.40;;;;;;20894630;22;20081;-67
2020/12/15 12:20:29;;;;;;;1.15;0.17;;;6.60;95.10;;;;;;20744367;28;20365;-67
2020/12/15 12:30:31;;;;;;;0.20;0.17;;;5.90;98.90;;;;;;20747462;28;20443;-67
2020/12/15 12:40:33;;;;;;;0.05;0.05;;;5.20;99.90;;;;;;20741584;28;20030;-67
2020/12/15 12:50:35;;;;;;;0.30;0.10;;;5.00;99.90;;;;;;20758686;28;20042;-67
2020/12/15 13:00:37;;;;;;;0.52;0.10;;;4.70;99.90;;;;;;20756771;28;20503;-68
2020/12/15 13:10:39;;;;;;;0.25;0.10;;;5.10;99.90;;;;;;20738547;28;20489;-68
2020/12/15 13:20:40;;;;;;;0.43;0.10;;;5.30;99.90;;;;;;20756142;28;20030;-67
2020/12/15 13:30:42;;;;;;;1.13;0.15;;;5.80;99.90;;;;;;20755407;28;20053;-67
2020/12/15 13:40:44;;;;;;;0.10;0.00;;;6.40;92.00;;;;;;20754498;28;20030;-67
2020/12/15 13:50:46;;;;;;;0.03;0.00;;;6.60;95.30;;;;;;20753591;28;20096;-67
2020/12/15 14:00:48;;;;;;;0.28;0.10;;;6.50;96.90;;;;;;20735230;28;20046;-67
2020/12/15 14:10:50;;;;;;;0.30;0.10;;;6.80;96.30;;;;;;20684485;28;20081;-67
2020/12/15 14:20:52;;;;;;;0.30;0.10;;;6.40;96.00;;;;;;20669462;28;20104;-67
2020/12/15 14:30:54;;;;;;;0.35;0.10;;;5.90;95.30;;;;;;20678848;28;20112;-66
2020/12/15 14:40:55;;;;;;;0.60;0.17;;;5.40;97.80;;;;;;20750288;28;20084;-66
2020/12/15 14:50:57;;;;;;;0.57;0.20;;;4.90;99.90;;;;;;20748896;28;20046;-66
2020/12/15 15:00:59;;;;;;;0.40;0.20;;;4.40;99.90;;;;;;20748140;28;20050;-67
2020/12/15 15:11:01;;;;;;;0.20;0.10;;;4.00;99.90;;;;;;20746823;28;20081;-66
2020/12/15 15:21:03;;;;;;;0.30;0.20;;;3.70;99.90;;;;;;20746612;28;20491;-66
2020/12/15 15:31:06;;;;;;;0.43;0.20;;;3.60;99.90;;;;;;20746688;28;20491;-67
2020/12/15 15:41:08;;;;;;;0.85;0.10;;;3.60;99.90;;;;;;20745571;28;20037;-67
2020/12/15 15:51:11;;;;;;;0.15;0.10;;;3.20;99.90;;;;;;20743851;28;20092;-66
2020/12/15 16:01:13;;;;;;;0.50;0.10;;;3.20;99.90;;;;;;20662622;28;20484;-67
2020/12/15 16:11:16;;;;;;;0.10;0.10;;;3.10;99.90;;;;;;20628530;28;20078;-68
2020/12/15 16:21:17;;;;;;;0.55;0.20;;;3.10;99.90;;;;;;20661547;28;20054;-66
2020/12/15 16:31:19;;;;;;;0.50;0.20;;;3.10;99.90;;;;;;20674552;28;20096;-66
2020/12/15 16:41:25;;;;;;;0.30;0.20;;;3.00;99.90;;;;;;20742867;28;20169;-67
2020/12/15 16:51:28;;;;;;;0.10;0.03;;;3.00;99.90;;;;;;20724900;28;20037;-68
2020/12/15 17:01:30;;;;;;;0.00;0.00;;;2.90;99.90;;;;;;20731493;28;20085;-67
2020/12/15 17:11:32;;;;;;;0.10;0.00;;;3.10;99.90;;;;;;20660355;28;20108;-66
2020/12/15 17:21:34;;;;;;;0.30;0.00;;;3.20;99.90;;;;;;20653359;28;20092;-67
2020/12/15 17:31:36;;;;;;;0.10;0.00;;;3.20;99.90;;;;;;20688817;28;20096;-68
2020/12/15 17:41:38;;;;;;;0.10;0.05;;;3.20;99.90;;;;;;20754726;28;20034;-67
2020/12/15 17:51:40;;;;;;;0.20;0.10;;;3.20;99.90;;;;;;20736908;28;20399;-67
2020/12/15 18:01:48;;;;;;;0.08;0.08;;;3.10;99.90;;;;;;20753977;28;20439;-66
2020/12/15 18:11:54;;;;;;;0.47;0.20;;;3.00;99.90;;;;;;20751902;28;20046;-67
2020/12/15 18:21:58;;;;;;;0.55;0.20;;;2.90;99.90;;;;;;20752297;28;20049;-67
2020/12/15 18:32:01;;;;;;;0.60;0.25;;;2.90;99.90;;;;;;20749774;28;20141;-68
2020/12/15 18:42:03;;;;;;;0.20;0.20;;;2.80;99.90;;;;;;20749913;28;20083;-68
2020/12/15 18:52:05;;;;;;;0.40;0.20;;;2.60;99.90;;;;;;20731005;28;20046;-68
2020/12/15 19:02:08;;;;;;;0.73;0.10;;;2.50;99.90;;;;;;20747834;28;20042;-68
2020/12/15 19:12:11;;;;;;;1.10;0.20;;;2.30;99.90;;;;;;20746785;28;20100;-69
2020/12/15 19:22:13;;;;;;;0.30;0.10;;;2.30;99.90;;;;;;20729199;28;20057;-69
2020/12/15 19:32:15;;;;;;;0.30;0.10;;;2.40;99.90;;;;;;20746118;28;20041;-69
2020/12/15 19:42:18;;;;;;;0.65;0.00;;;2.60;99.90;;;;;;20745371;28;20084;-68
2020/12/15 19:52:20;;;;;;;0.00;0.00;;;2.70;99.90;;;;;;20727177;28;20045;-69
2020/12/15 20:02:23;;;;;;;0.20;0.10;;;2.90;99.90;;;;;;20743518;28;20046;-68
2020/12/15 20:12:29;;;;;;;0.00;0.00;;;3.10;99.90;;;;;;20724406;28;20397;-67
2020/12/15 20:22:34;;;;;;;0.35;0.25;;;2.90;99.90;;;;;;20643524;28;20050;-68
2020/12/15 20:32:40;;;;;;;0.20;0.00;;;2.90;99.90;;;;;;20664070;28;20458;-67
2020/12/15 20:42:45;;;;;;;0.00;0.00;;;3.10;99.90;;;;;;20725265;28;20061;-67
2020/12/15 20:52:48;;;;;;;0.10;0.00;;;3.00;99.90;;;;;;20749147;28;20089;-68
2020/12/15 21:02:52;;;;;;;0.05;0.00;;;3.00;99.90;;;;;;20756272;28;20041;-68
2020/12/15 21:12:54;;;;;;;0.10;0.00;;;3.00;99.90;;;;;;20756756;28;20486;-67
2020/12/15 21:22:59;;;;;;;0.00;0.00;;;3.20;99.90;;;;;;20740364;28;20353;-67
2020/12/15 21:33:02;;;;;;;0.35;0.10;;;3.30;99.90;;;;;;20737312;28;20104;-68
2020/12/15 21:43:04;;;;;;;0.20;0.00;;;3.20;99.90;;;;;;20691758;28;20038;-67
2020/12/15 21:53:09;;;;;;;0.20;0.10;;;3.10;99.90;;;;;;20672269;28;20050;-68
2020/12/15 22:03:12;;;;;;;0.00;0.00;;;3.00;99.90;;;;;;20671308;28;20034;-67
2020/12/15 22:13:14;;;;;;;0.10;0.05;;;3.00;99.90;;;;;;20671762;28;20088;-67
2020/12/15 22:23:17;;;;;;;0.00;0.00;;;2.90;99.90;;;;;;20669457;28;20548;-68
2020/12/15 22:33:20;;;;;;;0.10;0.00;;;2.90;99.90;;;;;;20680842;28;20471;-67
2020/12/15 22:43:22;;;;;;;0.10;0.00;;;3.00;99.90;;;;;;20749031;28;20180;-67
2020/12/15 22:53:24;;;;;;;0.05;0.00;;;3.00;99.90;;;;;;20750095;28;20447;-68
2020/12/15 23:03:26;;;;;;;0.00;0.00;;;3.10;99.90;;;;;;20729540;28;20037;-66
2020/12/15 23:13:28;;;;;;;0.08;0.00;;;3.00;99.90;;;;;;20729842;28;20042;-67
2020/12/15 23:23:30;;;;;;;0.10;0.00;;;2.90;99.90;;;;;;20713159;28;20097;-67
2020/12/15 23:33:32;;;;;;;0.10;0.00;;;2.90;99.90;;;;;;20738432;28;20050;-67
2020/12/15 23:43:34;;;;;;;0.13;0.00;;;2.80;99.90;;;;;;20726525;28;20049;-67
2020/12/15 23:53:36;;;;;;;0.00;0.00;;;2.70;99.90;;;;;;20744265;28;20440;-67
